sensor_id;sensor_type;location;lat;lon;timestamp;pressure;altitude;pressure_sealevel;temperature;humidity
35291;BME280;21411;50.024;19.220;2022-12-24T00:00:20;97943.91;;;3.58;100.00
35291;BME280;21411;50.024;19.220;2022-12-24T00:03:07;97939.20;;;3.61;100.00
35291;BME280;21411;50.024;19.220;2022-12-24T00:05:33;97931.09;;;3.61;100.00
35291;BME280;21411;50.024;19.220;2022-12-24T00:07:59;97926.44;;;3.60;100.00
35291;BME280;21411;50.024;19.220;2022-12-24T00:10:27;97919.30;;;3.58;100.00
35291;BME280;21411;50.024;19.220;2022-12-24T00:12:53;97915.19;;;3.60;100.00
35291;BME280;21411;50.024;19.220;2022-12-24T00:15:19;97908.42;;;3.61;100.00
35291;BME280;21411;50.024;19.220;2022-12-24T00:17:45;97904.00;;;3.62;100.00
35291;BME280;21411;50.024;19.220;2022-12-24T00:20:11;97898.36;;;3.62;100.00
35291;BME280;21411;50.024;19.220;2022-12-24T00:22:37;97891.57;;;3.64;100.00
35291;BME280;21411;50.024;19.220;2022-12-24T00:25:03;97885.52;;;3.63;100.00
35291;BME280;21411;50.024;19.220;2022-12-24T00:27:29;97878.29;;;3.66;100.00
35291;BME280;21411;50.024;19.220;2022-12-24T00:29:55;97872.01;;;3.68;100.00
35291;BME280;21411;50.024;19.220;2022-12-24T00:32:21;97867.00;;;3.70;100.00
35291;BME280;21411;50.024;19.220;2022-12-24T00:34:48;97866.64;;;3.73;100.00
35291;BME280;21411;50.024;19.220;2022-12-24T00:37:14;97868.09;;;3.75;100.00
35291;BME280;21411;50.024;19.220;2022-12-24T00:39:40;97864.20;;;3.76;100.00
35291;BME280;21411;50.024;19.220;2022-12-24T00:42:06;97857.53;;;3.76;100.00
35291;BME280;21411;50.024;19.220;2022-12-24T00:44:32;97858.51;;;3.77;100.00
35291;BME280;21411;50.024;19.220;2022-12-24T00:46:58;97858.60;;;3.79;100.00
35291;BME280;21411;50.024;19.220;2022-12-24T00:49:25;97848.98;;;3.81;100.00
35291;BME280;21411;50.024;19.220;2022-12-24T00:51:51;97846.88;;;3.84;100.00
35291;BME280;21411;50.024;19.220;2022-12-24T00:54:16;97845.98;;;3.84;100.00
35291;BME280;21411;50.024;19.220;2022-12-24T00:56:42;97841.26;;;3.84;100.00
35291;BME280;21411;50.024;19.220;2022-12-24T00:59:08;97839.70;;;3.84;100.00
35291;BME280;21411;50.024;19.220;2022-12-24T01:01:34;97839.83;;;3.84;100.00
35291;BME280;21411;50.024;19.220;2022-12-24T01:04:01;97845.05;;;3.85;100.00
35291;BME280;21411;50.024;19.220;2022-12-24T01:06:46;97838.15;;;3.86;100.00
35291;BME280;21411;50.024;19.220;2022-12-24T01:09:12;97835.42;;;3.87;100.00
35291;BME280;21411;50.024;19.220;2022-12-24T01:11:38;97834.70;;;3.91;100.00
35291;BME280;21411;50.024;19.220;2022-12-24T01:14:05;97841.34;;;3.94;100.00
35291;BME280;21411;50.024;19.220;2022-12-24T01:16:32;97847.39;;;3.96;100.00
35291;BME280;21411;50.024;19.220;2022-12-24T01:18:58;97849.05;;;3.98;100.00
35291;BME280;21411;50.024;19.220;2022-12-24T01:21:24;97846.34;;;3.99;100.00
35291;BME280;21411;50.024;19.220;2022-12-24T01:23:51;97844.84;;;4.01;100.00
35291;BME280;21411;50.024;19.220;2022-12-24T01:26:17;97842.77;;;4.03;100.00
35291;BME280;21411;50.024;19.220;2022-12-24T01:28:43;97842.30;;;4.05;100.00
35291;BME280;21411;50.024;19.220;2022-12-24T01:31:12;97844.77;;;4.08;100.00
35291;BME280;21411;50.024;19.220;2022-12-24T01:33:38;97848.65;;;4.11;100.00
35291;BME280;21411;50.024;19.220;2022-12-24T01:36:05;97845.92;;;4.12;100.00
35291;BME280;21411;50.024;19.220;2022-12-24T01:38:31;97848.32;;;4.13;100.00
35291;BME280;21411;50.024;19.220;2022-12-24T01:40:57;97847.84;;;4.15;100.00
35291;BME280;21411;50.024;19.220;2022-12-24T01:43:42;97848.08;;;4.17;100.00
35291;BME280;21411;50.024;19.220;2022-12-24T01:46:28;97848.90;;;4.18;100.00
35291;BME280;21411;50.024;19.220;2022-12-24T01:49:01;97857.58;;;4.17;100.00
35291;BME280;21411;50.024;19.220;2022-12-24T01:51:39;97854.02;;;4.15;100.00
35291;BME280;21411;50.024;19.220;2022-12-24T01:54:12;97851.84;;;4.16;100.00
35291;BME280;21411;50.024;19.220;2022-12-24T01:56:44;97850.69;;;4.18;100.00
35291;BME280;21411;50.024;19.220;2022-12-24T01:59:14;97848.60;;;4.17;100.00
35291;BME280;21411;50.024;19.220;2022-12-24T02:01:41;97839.07;;;4.15;100.00
35291;BME280;21411;50.024;19.220;2022-12-24T02:04:31;97830.52;;;4.11;100.00
35291;BME280;21411;50.024;19.220;2022-12-24T02:06:59;97830.71;;;4.11;100.00
35291;BME280;21411;50.024;19.220;2022-12-24T02:09:25;97833.28;;;4.12;100.00
35291;BME280;21411;50.024;19.220;2022-12-24T02:11:51;97831.85;;;4.12;100.00
35291;BME280;21411;50.024;19.220;2022-12-24T02:14:17;97833.03;;;4.13;100.00
35291;BME280;21411;50.024;19.220;2022-12-24T02:22:18;97826.09;;;4.14;100.00
35291;BME280;21411;50.024;19.220;2022-12-24T02:25:02;97832.29;;;4.14;100.00
35291;BME280;21411;50.024;19.220;2022-12-24T02:27:57;97832.42;;;4.14;100.00
35291;BME280;21411;50.024;19.220;2022-12-24T02:30:29;97834.51;;;4.15;100.00
35291;BME280;21411;50.024;19.220;2022-12-24T02:33:23;97835.45;;;4.11;100.00
35291;BME280;21411;50.024;19.220;2022-12-24T02:39:11;97833.02;;;4.05;100.00
35291;BME280;21411;50.024;19.220;2022-12-24T02:41:42;97833.94;;;4.07;100.00
35291;BME280;21411;50.024;19.220;2022-12-24T02:44:32;97826.96;;;4.09;100.00
35291;BME280;21411;50.024;19.220;2022-12-24T02:47:01;97828.69;;;4.09;100.00
35291;BME280;21411;50.024;19.220;2022-12-24T02:49:29;97826.63;;;4.09;100.00
35291;BME280;21411;50.024;19.220;2022-12-24T02:51:55;97825.81;;;4.07;100.00
35291;BME280;21411;50.024;19.220;2022-12-24T02:54:21;97823.52;;;4.08;100.00
35291;BME280;21411;50.024;19.220;2022-12-24T02:57:04;97828.20;;;4.09;100.00
35291;BME280;21411;50.024;19.220;2022-12-24T02:59:47;97836.32;;;4.08;100.00
35291;BME280;21411;50.024;19.220;2022-12-24T03:07:46;97844.21;;;4.02;100.00
35291;BME280;21411;50.024;19.220;2022-12-24T03:10:26;97851.56;;;4.03;100.00
35291;BME280;21411;50.024;19.220;2022-12-24T03:12:59;97861.23;;;4.03;100.00
35291;BME280;21411;50.024;19.220;2022-12-24T03:15:28;97873.47;;;4.01;100.00
35291;BME280;21411;50.024;19.220;2022-12-24T03:17:59;97870.48;;;4.01;100.00
35291;BME280;21411;50.024;19.220;2022-12-24T03:20:33;97875.56;;;4.01;100.00
35291;BME280;21411;50.024;19.220;2022-12-24T03:23:02;97882.95;;;4.02;100.00
35291;BME280;21411;50.024;19.220;2022-12-24T03:25:28;97882.67;;;4.03;100.00
35291;BME280;21411;50.024;19.220;2022-12-24T03:27:55;97882.91;;;4.05;100.00
35291;BME280;21411;50.024;19.220;2022-12-24T03:30:22;97880.24;;;4.05;100.00
35291;BME280;21411;50.024;19.220;2022-12-24T03:32:48;97884.87;;;4.08;100.00
35291;BME280;21411;50.024;19.220;2022-12-24T03:35:14;97884.52;;;4.11;100.00
35291;BME280;21411;50.024;19.220;2022-12-24T03:37:40;97882.57;;;4.14;100.00
35291;BME280;21411;50.024;19.220;2022-12-24T03:40:07;97877.40;;;4.18;100.00
35291;BME280;21411;50.024;19.220;2022-12-24T03:42:34;97876.88;;;4.24;100.00
35291;BME280;21411;50.024;19.220;2022-12-24T03:44:59;97875.56;;;4.31;100.00
35291;BME280;21411;50.024;19.220;2022-12-24T03:47:25;97878.40;;;4.36;100.00
35291;BME280;21411;50.024;19.220;2022-12-24T03:49:51;97875.14;;;4.41;100.00
35291;BME280;21411;50.024;19.220;2022-12-24T03:52:18;97882.17;;;4.47;100.00
35291;BME280;21411;50.024;19.220;2022-12-24T03:54:44;97883.61;;;4.52;100.00
35291;BME280;21411;50.024;19.220;2022-12-24T03:57:09;97886.95;;;4.58;100.00
35291;BME280;21411;50.024;19.220;2022-12-24T03:59:36;97886.19;;;4.65;100.00
35291;BME280;21411;50.024;19.220;2022-12-24T04:02:02;97885.88;;;4.70;100.00
35291;BME280;21411;50.024;19.220;2022-12-24T04:04:28;97895.88;;;4.74;100.00
35291;BME280;21411;50.024;19.220;2022-12-24T04:06:54;97892.09;;;4.78;100.00
35291;BME280;21411;50.024;19.220;2022-12-24T04:09:20;97896.23;;;4.82;100.00
35291;BME280;21411;50.024;19.220;2022-12-24T04:11:46;97894.39;;;4.86;100.00
35291;BME280;21411;50.024;19.220;2022-12-24T04:14:12;97894.66;;;4.91;100.00
35291;BME280;21411;50.024;19.220;2022-12-24T04:16:38;97892.09;;;4.95;100.00
35291;BME280;21411;50.024;19.220;2022-12-24T04:19:04;97893.83;;;4.98;100.00
35291;BME280;21411;50.024;19.220;2022-12-24T04:21:31;97889.38;;;5.02;100.00
35291;BME280;21411;50.024;19.220;2022-12-24T04:23:57;97884.83;;;5.04;100.00
35291;BME280;21411;50.024;19.220;2022-12-24T04:26:22;97882.14;;;5.08;100.00
35291;BME280;21411;50.024;19.220;2022-12-24T04:28:48;97885.38;;;5.10;100.00
35291;BME280;21411;50.024;19.220;2022-12-24T04:31:16;97887.93;;;5.11;100.00
35291;BME280;21411;50.024;19.220;2022-12-24T04:33:43;97890.64;;;5.13;100.00
35291;BME280;21411;50.024;19.220;2022-12-24T04:36:12;97891.10;;;5.14;100.00
35291;BME280;21411;50.024;19.220;2022-12-24T04:38:39;97886.73;;;5.14;100.00
35291;BME280;21411;50.024;19.220;2022-12-24T04:41:09;97880.37;;;5.14;100.00
35291;BME280;21411;50.024;19.220;2022-12-24T04:43:35;97880.21;;;5.14;100.00
35291;BME280;21411;50.024;19.220;2022-12-24T04:46:10;97885.00;;;5.13;100.00
35291;BME280;21411;50.024;19.220;2022-12-24T04:48:37;97887.59;;;5.14;100.00
35291;BME280;21411;50.024;19.220;2022-12-24T04:51:04;97884.89;;;5.15;100.00
35291;BME280;21411;50.024;19.220;2022-12-24T04:53:32;97887.51;;;5.15;100.00
35291;BME280;21411;50.024;19.220;2022-12-24T04:55:58;97891.27;;;5.14;100.00
35291;BME280;21411;50.024;19.220;2022-12-24T04:58:25;97893.48;;;5.15;100.00
35291;BME280;21411;50.024;19.220;2022-12-24T05:00:51;97892.94;;;5.15;100.00
35291;BME280;21411;50.024;19.220;2022-12-24T05:03:18;97893.64;;;5.13;100.00
35291;BME280;21411;50.024;19.220;2022-12-24T05:05:44;97896.02;;;5.11;100.00
35291;BME280;21411;50.024;19.220;2022-12-24T05:08:10;97897.71;;;5.10;100.00
35291;BME280;21411;50.024;19.220;2022-12-24T05:10:37;97901.95;;;5.07;100.00
35291;BME280;21411;50.024;19.220;2022-12-24T05:13:03;97903.13;;;5.05;100.00
35291;BME280;21411;50.024;19.220;2022-12-24T05:15:29;97898.50;;;5.03;100.00
35291;BME280;21411;50.024;19.220;2022-12-24T05:17:55;97898.22;;;5.04;100.00
35291;BME280;21411;50.024;19.220;2022-12-24T05:20:23;97897.41;;;5.06;100.00
35291;BME280;21411;50.024;19.220;2022-12-24T05:22:49;97898.02;;;5.10;100.00
35291;BME280;21411;50.024;19.220;2022-12-24T05:25:37;97899.48;;;5.15;100.00
35291;BME280;21411;50.024;19.220;2022-12-24T05:28:22;97898.24;;;5.18;100.00
35291;BME280;21411;50.024;19.220;2022-12-24T05:30:49;97901.20;;;5.19;100.00
35291;BME280;21411;50.024;19.220;2022-12-24T05:33:15;97904.88;;;5.19;100.00
35291;BME280;21411;50.024;19.220;2022-12-24T05:35:41;97905.40;;;5.19;100.00
35291;BME280;21411;50.024;19.220;2022-12-24T05:38:08;97906.77;;;5.19;100.00
35291;BME280;21411;50.024;19.220;2022-12-24T05:40:34;97908.11;;;5.21;100.00
35291;BME280;21411;50.024;19.220;2022-12-24T05:43:00;97910.23;;;5.20;100.00
35291;BME280;21411;50.024;19.220;2022-12-24T05:45:27;97910.05;;;5.21;100.00
35291;BME280;21411;50.024;19.220;2022-12-24T05:47:53;97910.88;;;5.21;100.00
35291;BME280;21411;50.024;19.220;2022-12-24T05:50:19;97914.35;;;5.25;100.00
35291;BME280;21411;50.024;19.220;2022-12-24T05:52:45;97921.38;;;5.25;100.00
35291;BME280;21411;50.024;19.220;2022-12-24T05:55:11;97923.14;;;5.22;100.00
35291;BME280;21411;50.024;19.220;2022-12-24T05:57:39;97923.46;;;5.23;100.00
35291;BME280;21411;50.024;19.220;2022-12-24T06:00:09;97929.96;;;5.23;100.00
35291;BME280;21411;50.024;19.220;2022-12-24T06:02:36;97928.34;;;5.23;100.00
35291;BME280;21411;50.024;19.220;2022-12-24T06:05:05;97928.05;;;5.25;100.00
35291;BME280;21411;50.024;19.220;2022-12-24T06:07:31;97924.28;;;5.26;100.00
35291;BME280;21411;50.024;19.220;2022-12-24T06:09:57;97919.58;;;5.28;100.00
35291;BME280;21411;50.024;19.220;2022-12-24T06:12:23;97923.19;;;5.30;100.00
35291;BME280;21411;50.024;19.220;2022-12-24T06:14:49;97928.67;;;5.33;100.00
35291;BME280;21411;50.024;19.220;2022-12-24T06:17:15;97931.52;;;5.35;100.00
35291;BME280;21411;50.024;19.220;2022-12-24T06:19:41;97937.20;;;5.37;100.00
35291;BME280;21411;50.024;19.220;2022-12-24T06:22:07;97941.20;;;5.38;100.00
35291;BME280;21411;50.024;19.220;2022-12-24T06:24:33;97944.70;;;5.38;100.00
35291;BME280;21411;50.024;19.220;2022-12-24T06:26:59;97950.11;;;5.39;100.00
35291;BME280;21411;50.024;19.220;2022-12-24T06:29:25;97953.23;;;5.40;100.00
35291;BME280;21411;50.024;19.220;2022-12-24T06:31:51;97955.57;;;5.42;100.00
35291;BME280;21411;50.024;19.220;2022-12-24T06:34:17;97960.05;;;5.43;100.00
35291;BME280;21411;50.024;19.220;2022-12-24T06:36:43;97964.16;;;5.45;100.00
35291;BME280;21411;50.024;19.220;2022-12-24T06:39:09;97961.89;;;5.48;100.00
35291;BME280;21411;50.024;19.220;2022-12-24T06:41:35;97963.05;;;5.52;100.00
35291;BME280;21411;50.024;19.220;2022-12-24T06:44:01;97967.59;;;5.53;100.00
35291;BME280;21411;50.024;19.220;2022-12-24T06:46:27;97971.67;;;5.55;100.00
35291;BME280;21411;50.024;19.220;2022-12-24T06:48:53;97975.11;;;5.59;100.00
35291;BME280;21411;50.024;19.220;2022-12-24T06:51:20;97983.16;;;5.62;100.00
35291;BME280;21411;50.024;19.220;2022-12-24T06:53:49;97988.20;;;5.66;100.00
35291;BME280;21411;50.024;19.220;2022-12-24T06:56:16;97989.54;;;5.70;100.00
35291;BME280;21411;50.024;19.220;2022-12-24T06:58:43;97992.08;;;5.75;100.00
35291;BME280;21411;50.024;19.220;2022-12-24T07:01:12;97995.90;;;5.79;100.00
35291;BME280;21411;50.024;19.220;2022-12-24T07:03:39;97997.95;;;5.82;100.00
35291;BME280;21411;50.024;19.220;2022-12-24T07:06:05;97997.04;;;5.85;100.00
35291;BME280;21411;50.024;19.220;2022-12-24T07:08:32;97995.17;;;5.87;100.00
35291;BME280;21411;50.024;19.220;2022-12-24T07:11:01;97996.11;;;5.89;100.00
35291;BME280;21411;50.024;19.220;2022-12-24T07:13:27;98002.11;;;5.92;100.00
35291;BME280;21411;50.024;19.220;2022-12-24T07:16:02;98009.46;;;5.96;100.00
35291;BME280;21411;50.024;19.220;2022-12-24T07:18:29;98010.14;;;5.99;100.00
35291;BME280;21411;50.024;19.220;2022-12-24T07:20:56;98008.84;;;6.00;100.00
35291;BME280;21411;50.024;19.220;2022-12-24T07:23:22;98009.73;;;6.00;100.00
35291;BME280;21411;50.024;19.220;2022-12-24T07:25:48;98014.31;;;6.00;100.00
35291;BME280;21411;50.024;19.220;2022-12-24T07:28:14;98019.77;;;6.00;100.00
35291;BME280;21411;50.024;19.220;2022-12-24T07:30:40;98019.93;;;6.00;100.00
35291;BME280;21411;50.024;19.220;2022-12-24T07:33:07;98021.83;;;6.01;100.00
35291;BME280;21411;50.024;19.220;2022-12-24T07:35:33;98025.61;;;6.02;100.00
35291;BME280;21411;50.024;19.220;2022-12-24T07:38:00;98024.59;;;6.05;100.00
35291;BME280;21411;50.024;19.220;2022-12-24T07:40:26;98026.80;;;6.06;100.00
35291;BME280;21411;50.024;19.220;2022-12-24T07:42:53;98032.37;;;6.07;100.00
35291;BME280;21411;50.024;19.220;2022-12-24T07:45:19;98032.73;;;6.09;100.00
35291;BME280;21411;50.024;19.220;2022-12-24T07:47:45;98035.39;;;6.15;100.00
35291;BME280;21411;50.024;19.220;2022-12-24T07:50:14;98032.77;;;6.17;100.00
35291;BME280;21411;50.024;19.220;2022-12-24T07:52:40;98037.25;;;6.22;100.00
35291;BME280;21411;50.024;19.220;2022-12-24T07:55:06;98038.92;;;6.29;100.00
35291;BME280;21411;50.024;19.220;2022-12-24T07:57:57;98046.88;;;6.37;100.00
35291;BME280;21411;50.024;19.220;2022-12-24T08:00:24;98052.04;;;6.41;100.00
35291;BME280;21411;50.024;19.220;2022-12-24T08:02:50;98052.46;;;6.45;100.00
35291;BME280;21411;50.024;19.220;2022-12-24T08:05:16;98056.42;;;6.50;100.00
35291;BME280;21411;50.024;19.220;2022-12-24T08:07:43;98057.24;;;6.53;100.00
35291;BME280;21411;50.024;19.220;2022-12-24T08:10:09;98062.39;;;6.58;100.00
35291;BME280;21411;50.024;19.220;2022-12-24T08:12:37;98057.89;;;6.63;100.00
35291;BME280;21411;50.024;19.220;2022-12-24T08:15:08;98058.61;;;6.65;100.00
35291;BME280;21411;50.024;19.220;2022-12-24T08:17:34;98061.72;;;6.66;100.00
35291;BME280;21411;50.024;19.220;2022-12-24T08:20:01;98067.56;;;6.66;100.00
35291;BME280;21411;50.024;19.220;2022-12-24T08:22:29;98070.84;;;6.67;100.00
35291;BME280;21411;50.024;19.220;2022-12-24T08:24:54;98070.64;;;6.70;100.00
35291;BME280;21411;50.024;19.220;2022-12-24T08:27:21;98071.03;;;6.72;100.00
35291;BME280;21411;50.024;19.220;2022-12-24T08:29:47;98073.09;;;6.76;100.00
35291;BME280;21411;50.024;19.220;2022-12-24T08:32:13;98074.71;;;6.80;100.00
35291;BME280;21411;50.024;19.220;2022-12-24T08:34:39;98077.98;;;6.87;100.00
35291;BME280;21411;50.024;19.220;2022-12-24T08:37:05;98080.80;;;6.92;100.00
35291;BME280;21411;50.024;19.220;2022-12-24T08:39:31;98088.34;;;6.98;100.00
35291;BME280;21411;50.024;19.220;2022-12-24T08:41:57;98095.88;;;7.05;100.00
35291;BME280;21411;50.024;19.220;2022-12-24T08:44:24;98104.26;;;7.11;100.00
35291;BME280;21411;50.024;19.220;2022-12-24T08:46:50;98106.83;;;7.15;100.00
35291;BME280;21411;50.024;19.220;2022-12-24T08:49:16;98113.80;;;7.16;100.00
35291;BME280;21411;50.024;19.220;2022-12-24T08:51:42;98111.73;;;7.18;100.00
35291;BME280;21411;50.024;19.220;2022-12-24T08:54:08;98113.19;;;7.20;100.00
35291;BME280;21411;50.024;19.220;2022-12-24T08:56:34;98113.44;;;7.24;100.00
35291;BME280;21411;50.024;19.220;2022-12-24T08:59:00;98112.52;;;7.28;100.00
35291;BME280;21411;50.024;19.220;2022-12-24T09:01:27;98107.96;;;7.30;100.00
35291;BME280;21411;50.024;19.220;2022-12-24T09:03:53;98111.41;;;7.31;100.00
35291;BME280;21411;50.024;19.220;2022-12-24T09:06:19;98110.15;;;7.34;100.00
35291;BME280;21411;50.024;19.220;2022-12-24T09:08:46;98112.86;;;7.38;100.00
35291;BME280;21411;50.024;19.220;2022-12-24T09:11:15;98113.61;;;7.42;100.00
35291;BME280;21411;50.024;19.220;2022-12-24T09:13:42;98108.30;;;7.48;100.00
35291;BME280;21411;50.024;19.220;2022-12-24T09:16:10;98104.25;;;7.56;100.00
35291;BME280;21411;50.024;19.220;2022-12-24T09:18:37;98108.36;;;7.60;100.00
35291;BME280;21411;50.024;19.220;2022-12-24T09:21:06;98109.71;;;7.61;100.00
35291;BME280;21411;50.024;19.220;2022-12-24T09:23:37;98113.98;;;7.63;100.00
35291;BME280;21411;50.024;19.220;2022-12-24T09:26:12;98120.92;;;7.65;100.00
35291;BME280;21411;50.024;19.220;2022-12-24T09:28:39;98123.65;;;7.66;100.00
35291;BME280;21411;50.024;19.220;2022-12-24T09:31:05;98128.35;;;7.65;100.00
35291;BME280;21411;50.024;19.220;2022-12-24T09:33:34;98130.92;;;7.61;100.00
35291;BME280;21411;50.024;19.220;2022-12-24T09:36:02;98135.45;;;7.59;100.00
35291;BME280;21411;50.024;19.220;2022-12-24T09:38:28;98141.61;;;7.57;100.00
35291;BME280;21411;50.024;19.220;2022-12-24T09:40:55;98146.19;;;7.58;100.00
35291;BME280;21411;50.024;19.220;2022-12-24T09:43:25;98153.42;;;7.58;100.00
35291;BME280;21411;50.024;19.220;2022-12-24T09:48:32;98154.88;;;7.55;100.00
35291;BME280;21411;50.024;19.220;2022-12-24T09:51:04;98160.91;;;7.52;100.00
35291;BME280;21411;50.024;19.220;2022-12-24T09:53:42;98169.80;;;7.51;100.00
35291;BME280;21411;50.024;19.220;2022-12-24T09:56:19;98180.48;;;7.52;100.00
35291;BME280;21411;50.024;19.220;2022-12-24T09:58:49;98184.27;;;7.51;100.00
35291;BME280;21411;50.024;19.220;2022-12-24T10:01:17;98182.05;;;7.53;100.00
35291;BME280;21411;50.024;19.220;2022-12-24T10:03:45;98185.75;;;7.53;100.00
35291;BME280;21411;50.024;19.220;2022-12-24T10:06:39;98185.73;;;7.53;100.00
35291;BME280;21411;50.024;19.220;2022-12-24T10:15:02;98185.16;;;7.56;100.00
35291;BME280;21411;50.024;19.220;2022-12-24T10:26:13;98201.77;;;7.90;100.00
35291;BME280;21411;50.024;19.220;2022-12-24T10:28:46;98200.42;;;7.97;100.00
35291;BME280;21411;50.024;19.220;2022-12-24T10:31:14;98204.09;;;8.03;100.00
35291;BME280;21411;50.024;19.220;2022-12-24T10:33:43;98210.08;;;8.06;100.00
35291;BME280;21411;50.024;19.220;2022-12-24T10:36:19;98217.36;;;8.03;100.00
35291;BME280;21411;50.024;19.220;2022-12-24T10:38:46;98222.82;;;8.00;100.00
35291;BME280;21411;50.024;19.220;2022-12-24T10:41:13;98226.85;;;8.01;100.00
35291;BME280;21411;50.024;19.220;2022-12-24T10:43:42;98227.88;;;8.02;100.00
35291;BME280;21411;50.024;19.220;2022-12-24T10:46:22;98228.61;;;8.04;100.00
35291;BME280;21411;50.024;19.220;2022-12-24T10:51:33;98228.73;;;8.17;100.00
35291;BME280;21411;50.024;19.220;2022-12-24T10:54:15;98233.57;;;8.24;100.00
35291;BME280;21411;50.024;19.220;2022-12-24T10:57:05;98240.20;;;8.25;100.00
35291;BME280;21411;50.024;19.220;2022-12-24T10:59:48;98245.50;;;8.25;100.00
35291;BME280;21411;50.024;19.220;2022-12-24T11:02:28;98248.42;;;8.22;100.00
35291;BME280;21411;50.024;19.220;2022-12-24T11:04:54;98249.57;;;8.18;100.00
35291;BME280;21411;50.024;19.220;2022-12-24T11:07:22;98257.20;;;8.18;100.00
35291;BME280;21411;50.024;19.220;2022-12-24T11:09:56;98258.95;;;8.15;100.00
35291;BME280;21411;50.024;19.220;2022-12-24T11:12:26;98263.80;;;8.04;100.00
35291;BME280;21411;50.024;19.220;2022-12-24T11:17:59;98272.52;;;7.80;100.00
35291;BME280;21411;50.024;19.220;2022-12-24T11:20:33;98268.89;;;7.70;100.00
35291;BME280;21411;50.024;19.220;2022-12-24T11:23:00;98268.16;;;7.65;100.00
35291;BME280;21411;50.024;19.220;2022-12-24T11:25:31;98270.88;;;7.62;100.00
35291;BME280;21411;50.024;19.220;2022-12-24T11:28:24;98265.98;;;7.61;100.00
35291;BME280;21411;50.024;19.220;2022-12-24T11:31:20;98264.20;;;7.61;100.00
35291;BME280;21411;50.024;19.220;2022-12-24T11:33:50;98266.98;;;7.62;100.00
35291;BME280;21411;50.024;19.220;2022-12-24T11:36:22;98272.15;;;7.64;100.00
35291;BME280;21411;50.024;19.220;2022-12-24T11:38:53;98274.76;;;7.67;100.00
35291;BME280;21411;50.024;19.220;2022-12-24T11:41:21;98277.64;;;7.72;100.00
35291;BME280;21411;50.024;19.220;2022-12-24T11:44:00;98280.20;;;7.79;100.00
35291;BME280;21411;50.024;19.220;2022-12-24T11:46:39;98286.63;;;7.85;100.00
35291;BME280;21411;50.024;19.220;2022-12-24T11:51:39;98287.73;;;8.01;100.00
35291;BME280;21411;50.024;19.220;2022-12-24T11:54:25;98291.59;;;8.06;100.00
35291;BME280;21411;50.024;19.220;2022-12-24T11:56:56;98299.19;;;8.09;100.00
35291;BME280;21411;50.024;19.220;2022-12-24T12:02:00;98309.67;;;8.08;100.00
35291;BME280;21411;50.024;19.220;2022-12-24T12:04:32;98316.21;;;8.03;100.00
35291;BME280;21411;50.024;19.220;2022-12-24T12:07:04;98322.09;;;7.97;100.00
35291;BME280;21411;50.024;19.220;2022-12-24T12:09:44;98324.27;;;7.91;100.00
35291;BME280;21411;50.024;19.220;2022-12-24T12:12:28;98328.71;;;7.85;100.00
35291;BME280;21411;50.024;19.220;2022-12-24T12:15:10;98342.04;;;7.82;100.00
35291;BME280;21411;50.024;19.220;2022-12-24T12:17:46;98358.33;;;7.79;100.00
35291;BME280;21411;50.024;19.220;2022-12-24T12:20:31;98362.61;;;7.76;100.00
35291;BME280;21411;50.024;19.220;2022-12-24T12:23:16;98371.66;;;7.75;100.00
35291;BME280;21411;50.024;19.220;2022-12-24T12:25:53;98370.16;;;7.76;100.00
35291;BME280;21411;50.024;19.220;2022-12-24T12:28:27;98376.18;;;7.74;100.00
35291;BME280;21411;50.024;19.220;2022-12-24T12:31:20;98380.98;;;7.70;100.00
35291;BME280;21411;50.024;19.220;2022-12-24T12:36:40;98391.10;;;7.64;100.00
35291;BME280;21411;50.024;19.220;2022-12-24T12:39:08;98389.06;;;7.60;100.00
35291;BME280;21411;50.024;19.220;2022-12-24T12:58:04;98424.04;;;7.44;100.00
35291;BME280;21411;50.024;19.220;2022-12-24T13:00:38;98428.67;;;7.44;100.00
35291;BME280;21411;50.024;19.220;2022-12-24T13:12:02;98449.26;;;7.39;100.00
35291;BME280;21411;50.024;19.220;2022-12-24T13:22:17;98465.08;;;7.35;100.00
35291;BME280;21411;50.024;19.220;2022-12-24T13:24:50;98465.21;;;7.36;100.00
35291;BME280;21411;50.024;19.220;2022-12-24T13:27:31;98474.02;;;7.36;100.00
35291;BME280;21411;50.024;19.220;2022-12-24T13:29:59;98477.98;;;7.35;100.00
35291;BME280;21411;50.024;19.220;2022-12-24T13:53:05;98511.23;;;7.29;100.00
35291;BME280;21411;50.024;19.220;2022-12-24T13:55:54;98515.71;;;7.31;100.00
35291;BME280;21411;50.024;19.220;2022-12-24T13:58:23;98520.14;;;7.33;100.00
35291;BME280;21411;50.024;19.220;2022-12-24T14:01:04;98519.55;;;7.34;100.00
35291;BME280;21411;50.024;19.220;2022-12-24T14:03:41;98526.14;;;7.36;100.00
35291;BME280;21411;50.024;19.220;2022-12-24T14:06:11;98529.52;;;7.39;100.00
35291;BME280;21411;50.024;19.220;2022-12-24T14:08:46;98532.59;;;7.41;100.00
35291;BME280;21411;50.024;19.220;2022-12-24T14:11:23;98535.75;;;7.41;100.00
35291;BME280;21411;50.024;19.220;2022-12-24T14:14:08;98538.88;;;7.42;100.00
35291;BME280;21411;50.024;19.220;2022-12-24T14:16:43;98547.42;;;7.41;100.00
35291;BME280;21411;50.024;19.220;2022-12-24T14:21:48;98555.70;;;7.38;100.00
35291;BME280;21411;50.024;19.220;2022-12-24T14:24:19;98563.76;;;7.37;100.00
35291;BME280;21411;50.024;19.220;2022-12-24T14:26:52;98569.33;;;7.36;100.00
35291;BME280;21411;50.024;19.220;2022-12-24T14:29:31;98572.77;;;7.34;100.00
35291;BME280;21411;50.024;19.220;2022-12-24T14:32:00;98576.27;;;7.34;100.00
35291;BME280;21411;50.024;19.220;2022-12-24T14:34:30;98583.86;;;7.34;100.00
35291;BME280;21411;50.024;19.220;2022-12-24T14:36:58;98584.61;;;7.34;100.00
35291;BME280;21411;50.024;19.220;2022-12-24T14:39:33;98586.98;;;7.33;100.00
35291;BME280;21411;50.024;19.220;2022-12-24T14:42:28;98592.35;;;7.32;100.00
35291;BME280;21411;50.024;19.220;2022-12-24T14:45:12;98595.78;;;7.30;100.00